Aviation Digital Data Service (ADDS)

Output produced by METARs form (0558 UTC 08 December 2016)
found at http://aviationweather.gov/adds/metars/
 
KHUL 080527Z 0806/0906 22005KT 5SM BR OVC003 
     FM081600 23006KT P6SM VCSH BKN030 
     FM090000 24005KT P6SM BKN050 
     FM090300 24005KT P6SM SCT045